Station Historical Data
Daily Summary for March 17, 2012 Units:  Both    English   Metric
« Previous Day
Next Day »
Daily Weekly Monthly Yearly Custom
  High: Low: Average:
Temperature: 79.8 °F /  26.6 °C 58.6 °F /  14.8 °C 69.4 °F /  20.8 °C
Dew Point: 65.4 °F /  18.6 °C 56.9 °F /  13.8 °C 60 °F /  15.6 °C
Humidity: 95% 53% 73%
Wind Speed: 10.0mph /  16.1km/h - 2.5mph /  4km/h
Wind Gust: 15.0mph /  24.1km/h - -
Wind- - SSE
Pressure: 30.17 in /  1021.6 hPa 30.05 in /  1017.5 hPa -
Precipitation: 0.00 in /  0 mm    
Historical Graphs
 
 
Tabular Data for March 17, 2012
Time Temperature Dew Point Pressure Wind Wind Speed Wind Gust Humidity Rainfall Rate (Hourly) Conditions
00:00 64.3 °F /  17.9 °C 57.3 °F /  14.1 °C 30.11in /  1019.5hPa East 2.0mph /  3.2km/h 2.0mph /  3.2km/h 78% 0.00in /  0mm
00:01 64.4 °F /  18 °C 57.4 °F /  14.1 °C 30.11in /  1019.5hPa East 2.0mph /  3.2km/h 2.0mph /  3.2km/h 78% 0.00in /  0mm
00:06 64.8 °F /  18.2 °C 57.4 °F /  14.1 °C 30.11in /  1019.5hPa East 2.0mph /  3.2km/h 3.0mph /  4.8km/h 77% 0.00in /  0mm
00:11 64.9 °F /  18.3 °C 57.5 °F /  14.2 °C 30.11in /  1019.5hPa East 2.0mph /  3.2km/h 2.0mph /  3.2km/h 77% 0.00in /  0mm
00:16 65.0 °F /  18.3 °C 57.6 °F /  14.2 °C 30.11in /  1019.5hPa East 2.0mph /  3.2km/h 2.0mph /  3.2km/h 77% 0.00in /  0mm
00:22 65.1 °F /  18.4 °C 57.7 °F /  14.3 °C 30.11in /  1019.5hPa East 2.0mph /  3.2km/h 2.0mph /  3.2km/h 77% 0.00in /  0mm
00:27 65.1 °F /  18.4 °C 57.7 °F /  14.3 °C 30.11in /  1019.5hPa ESE 2.0mph /  3.2km/h 2.0mph /  3.2km/h 77% 0.00in /  0mm
00:32 65.0 °F /  18.3 °C 57.6 °F /  14.2 °C 30.11in /  1019.5hPa ESE 2.0mph /  3.2km/h 3.0mph /  4.8km/h 77% 0.00in /  0mm
00:37 64.8 °F /  18.2 °C 57.4 °F /  14.1 °C 30.11in /  1019.5hPa ESE 3.0mph /  4.8km/h 3.0mph /  4.8km/h 77% 0.00in /  0mm
00:42 64.9 °F /  18.3 °C 57.5 °F /  14.2 °C 30.11in /  1019.5hPa ESE 2.0mph /  3.2km/h 4.0mph /  6.4km/h 77% 0.00in /  0mm
00:47 65.1 °F /  18.4 °C 57.7 °F /  14.3 °C 30.11in /  1019.5hPa ESE 3.0mph /  4.8km/h 3.0mph /  4.8km/h 77% 0.00in /  0mm
00:52 65.1 °F /  18.4 °C 57.7 °F /  14.3 °C 30.11in /  1019.5hPa SE 3.0mph /  4.8km/h 3.0mph /  4.8km/h 77% 0.00in /  0mm
00:57 65.3 °F /  18.5 °C 57.5 °F /  14.2 °C 30.11in /  1019.5hPa ESE 3.0mph /  4.8km/h 3.0mph /  4.8km/h 76% 0.00in /  0mm
01:02 65.5 °F /  18.6 °C 57.7 °F /  14.3 °C 30.11in /  1019.5hPa ESE 2.0mph /  3.2km/h 4.0mph /  6.4km/h 76% 0.00in /  0mm
01:07 64.8 °F /  18.2 °C 57.8 °F /  14.3 °C 30.11in /  1019.5hPa ESE 1.0mph /  1.6km/h 1.0mph /  1.6km/h 78% 0.00in /  0mm
01:12 64.1 °F /  17.8 °C 57.5 °F /  14.2 °C 30.10in /  1019.2hPa Calm   1.0mph /  1.6km/h 79% 0.00in /  0mm
01:17 63.7 °F /  17.6 °C 57.4 °F /  14.1 °C 30.11in /  1019.5hPa Calm   1.0mph /  1.6km/h 80% 0.00in /  0mm
01:22 63.4 °F /  17.4 °C 57.1 °F /  13.9 °C 30.10in /  1019.2hPa ESE 1.0mph /  1.6km/h 2.0mph /  3.2km/h 80% 0.00in /  0mm
01:27 64.0 °F /  17.8 °C 57.4 °F /  14.1 °C 30.10in /  1019.2hPa ESE 3.0mph /  4.8km/h 3.0mph /  4.8km/h 79% 0.00in /  0mm
01:32 64.7 °F /  18.2 °C 57.3 °F /  14.1 °C 30.11in /  1019.5hPa SE 3.0mph /  4.8km/h 4.0mph /  6.4km/h 77% 0.00in /  0mm
01:37 65.1 °F /  18.4 °C 57.4 °F /  14.1 °C 30.11in /  1019.5hPa ESE 3.0mph /  4.8km/h 4.0mph /  6.4km/h 76% 0.00in /  0mm
01:42 65.1 °F /  18.4 °C 57.4 °F /  14.1 °C 30.11in /  1019.5hPa SE 4.0mph /  6.4km/h 4.0mph /  6.4km/h 76% 0.00in /  0mm
01:47 65.0 °F /  18.3 °C 57.3 °F /  14.1 °C 30.11in /  1019.5hPa ESE 3.0mph /  4.8km/h 4.0mph /  6.4km/h 76% 0.00in /  0mm
01:52 64.8 °F /  18.2 °C 57.4 °F /  14.1 °C 30.11in /  1019.5hPa ESE 2.0mph /  3.2km/h 3.0mph /  4.8km/h 77% 0.00in /  0mm
01:57 64.3 °F /  17.9 °C 57.3 °F /  14.1 °C 30.11in /  1019.5hPa ESE 2.0mph /  3.2km/h 2.0mph /  3.2km/h 78% 0.00in /  0mm
02:02 64.2 °F /  17.9 °C 57.2 °F /  14 °C 30.10in /  1019.2hPa East 2.0mph /  3.2km/h 3.0mph /  4.8km/h 78% 0.00in /  0mm
02:07 64.0 °F /  17.8 °C 57.4 °F /  14.1 °C 30.10in /  1019.2hPa East 2.0mph /  3.2km/h 2.0mph /  3.2km/h 79% 0.00in /  0mm
02:12 64.1 °F /  17.8 °C 57.5 °F /  14.2 °C 30.10in /  1019.2hPa East 2.0mph /  3.2km/h 3.0mph /  4.8km/h 79% 0.00in /  0mm
02:17 64.1 °F /  17.8 °C 57.5 °F /  14.2 °C 30.10in /  1019.2hPa East 1.0mph /  1.6km/h 2.0mph /  3.2km/h 79% 0.00in /  0mm
02:22 64.1 °F /  17.8 °C 57.5 °F /  14.2 °C 30.10in /  1019.2hPa East 2.0mph /  3.2km/h 2.0mph /  3.2km/h 79% 0.00in /  0mm
02:27 64.0 °F /  17.8 °C 57.7 °F /  14.3 °C 30.10in /  1019.2hPa East 2.0mph /  3.2km/h 3.0mph /  4.8km/h 80% 0.00in /  0mm
02:32 63.9 °F /  17.7 °C 57.6 °F /  14.2 °C 30.10in /  1019.2hPa East 2.0mph /  3.2km/h 2.0mph /  3.2km/h 80% 0.00in /  0mm
02:37 63.8 °F /  17.7 °C 57.9 °F /  14.4 °C 30.10in /  1019.2hPa East 2.0mph /  3.2km/h 2.0mph /  3.2km/h 81% 0.00in /  0mm
02:42 63.7 °F /  17.6 °C 57.8 °F /  14.3 °C 30.10in /  1019.2hPa East 2.0mph /  3.2km/h 2.0mph /  3.2km/h 81% 0.00in /  0mm
02:47 63.7 °F /  17.6 °C 58.1 °F /  14.5 °C 30.10in /  1019.2hPa East 2.0mph /  3.2km/h 2.0mph /  3.2km/h 82% 0.00in /  0mm
02:52 63.6 °F /  17.6 °C 58.0 °F /  14.4 °C 30.10in /  1019.2hPa East 2.0mph /  3.2km/h 2.0mph /  3.2km/h 82% 0.00in /  0mm
02:57 63.5 °F /  17.5 °C 57.9 °F /  14.4 °C 30.10in /  1019.2hPa East 2.0mph /  3.2km/h 3.0mph /  4.8km/h 82% 0.00in /  0mm
03:02 63.3 °F /  17.4 °C 58.1 °F /  14.5 °C 30.10in /  1019.2hPa East 2.0mph /  3.2km/h 2.0mph /  3.2km/h 83% 0.00in /  0mm
03:07 62.9 °F /  17.2 °C 57.7 °F /  14.3 °C 30.10in /  1019.2hPa East 2.0mph /  3.2km/h 2.0mph /  3.2km/h 83% 0.00in /  0mm
03:13 62.5 °F /  16.9 °C 57.6 °F /  14.2 °C 30.10in /  1019.2hPa Calm   1.0mph /  1.6km/h 84% 0.00in /  0mm
03:18 62.0 °F /  16.7 °C 57.5 °F /  14.2 °C 30.10in /  1019.2hPa East 1.0mph /  1.6km/h 1.0mph /  1.6km/h 85% 0.00in /  0mm
03:23 62.0 °F /  16.7 °C 57.8 °F /  14.3 °C 30.10in /  1019.2hPa East 1.0mph /  1.6km/h 2.0mph /  3.2km/h 86% 0.00in /  0mm
03:28 61.7 °F /  16.5 °C 57.2 °F /  14 °C 30.10in /  1019.2hPa Calm   1.0mph /  1.6km/h 85% 0.00in /  0mm
03:33 61.3 °F /  16.3 °C 57.1 °F /  13.9 °C 30.10in /  1019.2hPa Calm     86% 0.00in /  0mm
03:38 60.9 °F /  16.1 °C 57.0 °F /  13.9 °C 30.10in /  1019.2hPa Calm     87% 0.00in /  0mm
03:43 60.6 °F /  15.9 °C 57.0 °F /  13.9 °C 30.10in /  1019.2hPa Calm     88% 0.00in /  0mm
03:48 61.1 °F /  16.2 °C 57.8 °F /  14.3 °C 30.10in /  1019.2hPa Calm   1.0mph /  1.6km/h 89% 0.00in /  0mm
03:53 61.4 °F /  16.3 °C 57.8 °F /  14.3 °C 30.10in /  1019.2hPa Calm   1.0mph /  1.6km/h 88% 0.00in /  0mm
03:58 61.5 °F /  16.4 °C 57.9 °F /  14.4 °C 30.10in /  1019.2hPa Calm   1.0mph /  1.6km/h 88% 0.00in /  0mm
04:03 61.7 °F /  16.5 °C 58.1 °F /  14.5 °C 30.10in /  1019.2hPa Calm   1.0mph /  1.6km/h 88% 0.00in /  0mm
04:08 61.9 °F /  16.6 °C 58.3 °F /  14.6 °C 30.09in /  1018.8hPa SSE 1.0mph /  1.6km/h 1.0mph /  1.6km/h 88% 0.00in /  0mm
04:13 62.2 °F /  16.8 °C 58.6 °F /  14.8 °C 30.09in /  1018.8hPa Calm   1.0mph /  1.6km/h 88% 0.00in /  0mm
04:18 62.3 °F /  16.8 °C 58.7 °F /  14.8 °C 30.09in /  1018.8hPa SSE 1.0mph /  1.6km/h 1.0mph /  1.6km/h 88% 0.00in /  0mm
04:23 62.3 °F /  16.8 °C 58.7 °F /  14.8 °C 30.09in /  1018.8hPa Calm   1.0mph /  1.6km/h 88% 0.00in /  0mm
04:28 62.3 °F /  16.8 °C 58.7 °F /  14.8 °C 30.09in /  1018.8hPa Calm   1.0mph /  1.6km/h 88% 0.00in /  0mm
04:33 62.3 °F /  16.8 °C 58.7 °F /  14.8 °C 30.09in /  1018.8hPa Calm   1.0mph /  1.6km/h 88% 0.00in /  0mm
04:38 62.1 °F /  16.7 °C 58.5 °F /  14.7 °C 30.09in /  1018.8hPa Calm   1.0mph /  1.6km/h 88% 0.00in /  0mm
04:43 61.9 °F /  16.6 °C 58.6 °F /  14.8 °C 30.09in /  1018.8hPa Calm   1.0mph /  1.6km/h 89% 0.00in /  0mm
04:48 61.6 °F /  16.4 °C 58.3 °F /  14.6 °C 30.09in /  1018.8hPa Calm     89% 0.00in /  0mm
04:53 61.4 °F /  16.3 °C 58.1 °F /  14.5 °C 30.09in /  1018.8hPa Calm   1.0mph /  1.6km/h 89% 0.00in /  0mm
04:58 61.2 °F /  16.2 °C 58.2 °F /  14.6 °C 30.09in /  1018.8hPa Calm     90% 0.00in /  0mm
05:03 61.0 °F /  16.1 °C 58.0 °F /  14.4 °C 30.10in /  1019.2hPa Calm     90% 0.00in /  0mm
05:08 60.9 °F /  16.1 °C 58.3 °F /  14.6 °C 30.10in /  1019.2hPa Calm   1.0mph /  1.6km/h 91% 0.00in /  0mm
05:13 61.0 °F /  16.1 °C 58.4 °F /  14.7 °C 30.09in /  1018.8hPa Calm   1.0mph /  1.6km/h 91% 0.00in /  0mm
05:19 60.8 °F /  16 °C 58.2 °F /  14.6 °C 30.10in /  1019.2hPa SE 1.0mph /  1.6km/h 1.0mph /  1.6km/h 91% 0.00in /  0mm
05:24 60.9 °F /  16.1 °C 58.3 °F /  14.6 °C 30.10in /  1019.2hPa Calm   1.0mph /  1.6km/h 91% 0.00in /  0mm
05:29 60.9 °F /  16.1 °C 58.3 °F /  14.6 °C 30.10in /  1019.2hPa Calm     91% 0.00in /  0mm
05:34 60.8 °F /  16 °C 58.5 °F /  14.7 °C 30.10in /  1019.2hPa ESE 1.0mph /  1.6km/h 1.0mph /  1.6km/h 92% 0.00in /  0mm
05:39 60.5 °F /  15.8 °C 57.9 °F /  14.4 °C 30.10in /  1019.2hPa East 2.0mph /  3.2km/h 2.0mph /  3.2km/h 91% 0.00in /  0mm
05:44 60.5 °F /  15.8 °C 58.2 °F /  14.6 °C 30.10in /  1019.2hPa East 2.0mph /  3.2km/h 2.0mph /  3.2km/h 92% 0.00in /  0mm
05:49 60.4 °F /  15.8 °C 58.1 °F /  14.5 °C 30.10in /  1019.2hPa ESE 1.0mph /  1.6km/h 2.0mph /  3.2km/h 92% 0.00in /  0mm
05:54 60.2 °F /  15.7 °C 57.9 °F /  14.4 °C 30.10in /  1019.2hPa Calm   2.0mph /  3.2km/h 92% 0.00in /  0mm
05:59 59.9 °F /  15.5 °C 57.6 °F /  14.2 °C 30.10in /  1019.2hPa East 2.0mph /  3.2km/h 2.0mph /  3.2km/h 92% 0.00in /  0mm
06:04 59.8 °F /  15.4 °C 57.5 °F /  14.2 °C 30.10in /  1019.2hPa East 1.0mph /  1.6km/h 1.0mph /  1.6km/h 92% 0.00in /  0mm
06:09 59.8 °F /  15.4 °C 57.8 °F /  14.3 °C 30.10in /  1019.2hPa East 1.0mph /  1.6km/h 1.0mph /  1.6km/h 93% 0.00in /  0mm
06:14 59.7 °F /  15.4 °C 57.7 °F /  14.3 °C 30.11in /  1019.5hPa East 1.0mph /  1.6km/h 2.0mph /  3.2km/h 93% 0.00in /  0mm
06:19 59.9 °F /  15.5 °C 57.9 °F /  14.4 °C 30.11in /  1019.5hPa East 1.0mph /  1.6km/h 2.0mph /  3.2km/h 93% 0.00in /  0mm
06:24 59.9 °F /  15.5 °C 57.9 °F /  14.4 °C 30.11in /  1019.5hPa ESE 2.0mph /  3.2km/h 2.0mph /  3.2km/h 93% 0.00in /  0mm
06:29 59.9 °F /  15.5 °C 57.9 °F /  14.4 °C 30.11in /  1019.5hPa East 1.0mph /  1.6km/h 2.0mph /  3.2km/h 93% 0.00in /  0mm
06:34 59.6 °F /  15.3 °C 57.6 °F /  14.2 °C 30.11in /  1019.5hPa East 1.0mph /  1.6km/h 2.0mph /  3.2km/h 93% 0.00in /  0mm
06:39 59.3 °F /  15.2 °C 57.3 °F /  14.1 °C 30.11in /  1019.5hPa East 2.0mph /  3.2km/h 3.0mph /  4.8km/h 93% 0.00in /  0mm
06:44 59.1 °F /  15.1 °C 57.1 °F /  13.9 °C 30.12in /  1019.9hPa Calm   1.0mph /  1.6km/h 93% 0.00in /  0mm
06:49 59.0 °F /  15 °C 57.3 °F /  14.1 °C 30.12in /  1019.9hPa ESE 1.0mph /  1.6km/h 1.0mph /  1.6km/h 94% 0.00in /  0mm
06:54 59.0 °F /  15 °C 57.3 °F /  14.1 °C 30.12in /  1019.9hPa ESE 1.0mph /  1.6km/h 2.0mph /  3.2km/h 94% 0.00in /  0mm
06:59 58.9 °F /  14.9 °C 57.2 °F /  14 °C 30.12in /  1019.9hPa ESE 2.0mph /  3.2km/h 2.0mph /  3.2km/h 94% 0.00in /  0mm
07:04 59.0 °F /  15 °C 57.3 °F /  14.1 °C 30.12in /  1019.9hPa ESE 1.0mph /  1.6km/h 2.0mph /  3.2km/h 94% 0.00in /  0mm
07:09 58.9 °F /  14.9 °C 57.2 °F /  14 °C 30.13in /  1020.2hPa Calm   1.0mph /  1.6km/h 94% 0.00in /  0mm
07:14 58.6 °F /  14.8 °C 56.9 °F /  13.8 °C 30.13in /  1020.2hPa ESE 1.0mph /  1.6km/h 1.0mph /  1.6km/h 94% 0.00in /  0mm
07:19 58.9 °F /  14.9 °C 57.2 °F /  14 °C 30.13in /  1020.2hPa ESE 2.0mph /  3.2km/h 2.0mph /  3.2km/h 94% 0.00in /  0mm
07:24 59.1 °F /  15.1 °C 57.4 °F /  14.1 °C 30.13in /  1020.2hPa SE 3.0mph /  4.8km/h 3.0mph /  4.8km/h 94% 0.00in /  0mm
07:29 59.4 °F /  15.2 °C 58.0 °F /  14.4 °C 30.13in /  1020.2hPa ESE 2.0mph /  3.2km/h 3.0mph /  4.8km/h 95% 0.00in /  0mm
07:34 59.6 °F /  15.3 °C 57.9 °F /  14.4 °C 30.13in /  1020.2hPa SE 3.0mph /  4.8km/h 3.0mph /  4.8km/h 94% 0.00in /  0mm
07:39 59.6 °F /  15.3 °C 57.9 °F /  14.4 °C 30.13in /  1020.2hPa ESE 2.0mph /  3.2km/h 3.0mph /  4.8km/h 94% 0.00in /  0mm
07:44 59.6 °F /  15.3 °C 57.9 °F /  14.4 °C 30.14in /  1020.5hPa SE 2.0mph /  3.2km/h 3.0mph /  4.8km/h 94% 0.00in /  0mm
07:49 59.6 °F /  15.3 °C 57.9 °F /  14.4 °C 30.14in /  1020.5hPa ESE 2.0mph /  3.2km/h 3.0mph /  4.8km/h 94% 0.00in /  0mm
07:54 59.6 °F /  15.3 °C 57.9 °F /  14.4 °C 30.14in /  1020.5hPa ESE 2.0mph /  3.2km/h 2.0mph /  3.2km/h 94% 0.00in /  0mm
07:59 59.5 °F /  15.3 °C 57.8 °F /  14.3 °C 30.14in /  1020.5hPa ESE 2.0mph /  3.2km/h 2.0mph /  3.2km/h 94% 0.00in /  0mm
08:04 59.3 °F /  15.2 °C 57.6 °F /  14.2 °C 30.14in /  1020.5hPa ESE 2.0mph /  3.2km/h 2.0mph /  3.2km/h 94% 0.00in /  0mm
08:09 59.6 °F /  15.3 °C 57.9 °F /  14.4 °C 30.14in /  1020.5hPa ESE 1.0mph /  1.6km/h 2.0mph /  3.2km/h 94% 0.00in /  0mm
08:14 59.5 °F /  15.3 °C 57.8 °F /  14.3 °C 30.14in /  1020.5hPa ESE 1.0mph /  1.6km/h 1.0mph /  1.6km/h 94% 0.00in /  0mm
08:19 59.7 °F /  15.4 °C 58.0 °F /  14.4 °C 30.14in /  1020.5hPa Calm   1.0mph /  1.6km/h 94% 0.00in /  0mm
08:24 59.8 °F /  15.4 °C 58.1 °F /  14.5 °C 30.15in /  1020.9hPa Calm   1.0mph /  1.6km/h 94% 0.00in /  0mm
08:29 60.1 °F /  15.6 °C 58.4 °F /  14.7 °C 30.15in /  1020.9hPa Calm   1.0mph /  1.6km/h 94% 0.00in /  0mm
08:35 60.4 °F /  15.8 °C 58.7 °F /  14.8 °C 30.15in /  1020.9hPa East 1.0mph /  1.6km/h 2.0mph /  3.2km/h 94% 0.00in /  0mm
08:40 60.8 °F /  16 °C 59.1 °F /  15.1 °C 30.15in /  1020.9hPa East 2.0mph /  3.2km/h 2.0mph /  3.2km/h 94% 0.00in /  0mm
08:45 61.0 °F /  16.1 °C 59.3 °F /  15.2 °C 30.15in /  1020.9hPa ESE 2.0mph /  3.2km/h 2.0mph /  3.2km/h 94% 0.00in /  0mm
08:50 61.2 °F /  16.2 °C 59.5 °F /  15.3 °C 30.15in /  1020.9hPa East 1.0mph /  1.6km/h 1.0mph /  1.6km/h 94% 0.00in /  0mm
08:55 61.7 °F /  16.5 °C 60.0 °F /  15.6 °C 30.15in /  1020.9hPa ESE 1.0mph /  1.6km/h 1.0mph /  1.6km/h 94% 0.00in /  0mm
09:00 62.1 °F /  16.7 °C 60.1 °F /  15.6 °C 30.15in /  1020.9hPa ESE 1.0mph /  1.6km/h 2.0mph /  3.2km/h 93% 0.00in /  0mm
09:05 62.4 °F /  16.9 °C 60.3 °F /  15.7 °C 30.15in /  1020.9hPa ESE 1.0mph /  1.6km/h 2.0mph /  3.2km/h 93% 0.00in /  0mm
09:10 62.9 °F /  17.2 °C 60.8 °F /  16 °C 30.15in /  1020.9hPa ESE 2.0mph /  3.2km/h 2.0mph /  3.2km/h 93% 0.00in /  0mm
09:15 63.3 °F /  17.4 °C 60.9 °F /  16.1 °C 30.15in /  1020.9hPa ESE 4.0mph /  6.4km/h 4.0mph /  6.4km/h 92% 0.00in /  0mm
09:20 63.7 °F /  17.6 °C 61.3 °F /  16.3 °C 30.16in /  1021.2hPa ESE 4.0mph /  6.4km/h 4.0mph /  6.4km/h 92% 0.00in /  0mm
09:25 64.2 °F /  17.9 °C 61.5 °F /  16.4 °C 30.16in /  1021.2hPa ESE 3.0mph /  4.8km/h 3.0mph /  4.8km/h 91% 0.00in /  0mm
09:30 64.7 °F /  18.2 °C 62.0 °F /  16.7 °C 30.16in /  1021.2hPa ESE 2.0mph /  3.2km/h 3.0mph /  4.8km/h 91% 0.00in /  0mm
09:35 64.9 °F /  18.3 °C 61.9 °F /  16.6 °C 30.16in /  1021.2hPa ESE 3.0mph /  4.8km/h 3.0mph /  4.8km/h 90% 0.00in /  0mm
09:40 64.7 °F /  18.2 °C 61.7 °F /  16.5 °C 30.16in /  1021.2hPa ESE 2.0mph /  3.2km/h 2.0mph /  3.2km/h 90% 0.00in /  0mm
09:45 64.8 °F /  18.2 °C 61.8 °F /  16.6 °C 30.16in /  1021.2hPa East 2.0mph /  3.2km/h 2.0mph /  3.2km/h 90% 0.00in /  0mm
09:50 65.2 °F /  18.4 °C 62.5 °F /  16.9 °C 30.16in /  1021.2hPa ESE 2.0mph /  3.2km/h 2.0mph /  3.2km/h 91% 0.00in /  0mm
09:55 65.6 °F /  18.7 °C 62.6 °F /  17 °C 30.16in /  1021.2hPa Calm   2.0mph /  3.2km/h 90% 0.00in /  0mm
10:00 66.1 °F /  18.9 °C 63.1 °F /  17.3 °C 30.16in /  1021.2hPa ESE 1.0mph /  1.6km/h 2.0mph /  3.2km/h 90% 0.00in /  0mm
10:06 66.6 °F /  19.2 °C 63.3 °F /  17.4 °C 30.16in /  1021.2hPa ESE 1.0mph /  1.6km/h 2.0mph /  3.2km/h 89% 0.00in /  0mm
10:11 67.2 °F /  19.6 °C 62.9 °F /  17.2 °C 30.16in /  1021.2hPa SE 1.0mph /  1.6km/h 3.0mph /  4.8km/h 86% 0.00in /  0mm
10:16 68.1 °F /  20.1 °C 63.4 °F /  17.4 °C 30.17in /  1021.6hPa SW 1.0mph /  1.6km/h 2.0mph /  3.2km/h 85% 0.00in /  0mm
10:21 69.0 °F /  20.6 °C 64.0 °F /  17.8 °C 30.17in /  1021.6hPa SSE 2.0mph /  3.2km/h 3.0mph /  4.8km/h 84% 0.00in /  0mm
10:26 69.7 °F /  20.9 °C 64.0 °F /  17.8 °C 30.17in /  1021.6hPa SE 2.0mph /  3.2km/h 3.0mph /  4.8km/h 82% 0.00in /  0mm
10:31 70.7 °F /  21.5 °C 63.9 °F /  17.7 °C 30.17in /  1021.6hPa SSE 2.0mph /  3.2km/h 2.0mph /  3.2km/h 79% 0.00in /  0mm
10:36 71.3 °F /  21.8 °C 64.5 °F /  18.1 °C 30.17in /  1021.6hPa SW 1.0mph /  1.6km/h 2.0mph /  3.2km/h 79% 0.00in /  0mm
10:41 71.8 °F /  22.1 °C 63.1 °F /  17.3 °C 30.17in /  1021.6hPa WSW 3.0mph /  4.8km/h 4.0mph /  6.4km/h 74% 0.00in /  0mm
10:46 72.1 °F /  22.3 °C 63.8 °F /  17.7 °C 30.17in /  1021.6hPa SSW 3.0mph /  4.8km/h 4.0mph /  6.4km/h 75% 0.00in /  0mm
10:51 72.4 °F /  22.4 °C 64.0 °F /  17.8 °C 30.17in /  1021.6hPa SW 3.0mph /  4.8km/h 4.0mph /  6.4km/h 75% 0.00in /  0mm
10:56 72.7 °F /  22.6 °C 63.9 °F /  17.7 °C 30.17in /  1021.6hPa SW 3.0mph /  4.8km/h 5.0mph /  8km/h 74% 0.00in /  0mm
11:01 73.1 °F /  22.8 °C 63.5 °F /  17.5 °C 30.17in /  1021.6hPa SW 6.0mph /  9.7km/h 6.0mph /  9.7km/h 72% 0.00in /  0mm
11:06 73.4 °F /  23 °C 63.8 °F /  17.7 °C 30.17in /  1021.6hPa WSW 6.0mph /  9.7km/h 7.0mph /  11.3km/h 72% 0.00in /  0mm
11:11 73.8 °F /  23.2 °C 63.4 °F /  17.4 °C 30.17in /  1021.6hPa WSW 2.0mph /  3.2km/h 4.0mph /  6.4km/h 70% 0.00in /  0mm
11:16 74.2 °F /  23.4 °C 63.4 °F /  17.4 °C 30.17in /  1021.6hPa SSW 4.0mph /  6.4km/h 6.0mph /  9.7km/h 69% 0.00in /  0mm
11:21 74.4 °F /  23.6 °C 63.6 °F /  17.6 °C 30.17in /  1021.6hPa WSW 3.0mph /  4.8km/h 6.0mph /  9.7km/h 69% 0.00in /  0mm
11:26 74.7 °F /  23.7 °C 63.5 °F /  17.5 °C 30.17in /  1021.6hPa WSW 3.0mph /  4.8km/h 7.0mph /  11.3km/h 68% 0.00in /  0mm
11:31 74.6 °F /  23.7 °C 62.5 °F /  16.9 °C 30.17in /  1021.6hPa West 5.0mph /  8km/h 9.0mph /  14.5km/h 66% 0.00in /  0mm
11:36 74.7 °F /  23.7 °C 62.6 °F /  17 °C 30.17in /  1021.6hPa WSW 7.0mph /  11.3km/h 10.0mph /  16.1km/h 66% 0.00in /  0mm
11:41 74.8 °F /  23.8 °C 62.7 °F /  17.1 °C 30.17in /  1021.6hPa SSW 3.0mph /  4.8km/h 10.0mph /  16.1km/h 66% 0.00in /  0mm
11:46 74.5 °F /  23.6 °C 62.4 °F /  16.9 °C 30.17in /  1021.6hPa SW 4.0mph /  6.4km/h 11.0mph /  17.7km/h 66% 0.00in /  0mm
11:52 74.8 °F /  23.8 °C 63.1 °F /  17.3 °C 30.17in /  1021.6hPa SW 7.0mph /  11.3km/h 7.0mph /  11.3km/h 67% 0.00in /  0mm
11:57 74.8 °F /  23.8 °C 62.7 °F /  17.1 °C 30.17in /  1021.6hPa West 6.0mph /  9.7km/h 10.0mph /  16.1km/h 66% 0.00in /  0mm
12:02 75.0 °F /  23.9 °C 64.2 °F /  17.9 °C 30.17in /  1021.6hPa SSW 4.0mph /  6.4km/h 11.0mph /  17.7km/h 69% 0.00in /  0mm
12:07 75.5 °F /  24.2 °C 64.6 °F /  18.1 °C 30.17in /  1021.6hPa SE 4.0mph /  6.4km/h 7.0mph /  11.3km/h 69% 0.00in /  0mm
12:12 75.6 °F /  24.2 °C 63.5 °F /  17.5 °C 30.17in /  1021.6hPa SW 4.0mph /  6.4km/h 7.0mph /  11.3km/h 66% 0.00in /  0mm
12:17 75.7 °F /  24.3 °C 64.4 °F /  18 °C 30.17in /  1021.6hPa South 6.0mph /  9.7km/h 9.0mph /  14.5km/h 68% 0.00in /  0mm
12:22 76.3 °F /  24.6 °C 65.4 °F /  18.6 °C 30.17in /  1021.6hPa SW 7.0mph /  11.3km/h 7.0mph /  11.3km/h 69% 0.00in /  0mm
12:27 76.2 °F /  24.6 °C 63.6 °F /  17.6 °C 30.16in /  1021.2hPa SSW 5.0mph /  8km/h 9.0mph /  14.5km/h 65% 0.00in /  0mm
12:32 76.6 °F /  24.8 °C 64.0 °F /  17.8 °C 30.16in /  1021.2hPa SSE 9.0mph /  14.5km/h 9.0mph /  14.5km/h 65% 0.00in /  0mm
12:37 76.6 °F /  24.8 °C 64.4 °F /  18 °C 30.16in /  1021.2hPa WSW 7.0mph /  11.3km/h 9.0mph /  14.5km/h 66% 0.00in /  0mm
12:42 76.5 °F /  24.7 °C 63.4 °F /  17.4 °C 30.16in /  1021.2hPa South 5.0mph /  8km/h 9.0mph /  14.5km/h 64% 0.00in /  0mm
12:47 76.7 °F /  24.8 °C 64.1 °F /  17.8 °C 30.16in /  1021.2hPa SSE 6.0mph /  9.7km/h 7.0mph /  11.3km/h 65% 0.00in /  0mm
12:52 76.9 °F /  24.9 °C 64.7 °F /  18.2 °C 30.16in /  1021.2hPa SE 6.0mph /  9.7km/h 10.0mph /  16.1km/h 66% 0.00in /  0mm
12:57 77.2 °F /  25.1 °C 64.1 °F /  17.8 °C 30.15in /  1020.9hPa SSE 7.0mph /  11.3km/h 11.0mph /  17.7km/h 64% 0.00in /  0mm
13:02 77.4 °F /  25.2 °C 64.3 °F /  17.9 °C 30.16in /  1021.2hPa SSW 4.0mph /  6.4km/h 9.0mph /  14.5km/h 64% 0.00in /  0mm
13:07 77.3 °F /  25.2 °C 64.2 °F /  17.9 °C 30.15in /  1020.9hPa SW 5.0mph /  8km/h 10.0mph /  16.1km/h 64% 0.00in /  0mm
13:12 76.9 °F /  24.9 °C 63.4 °F /  17.4 °C 30.15in /  1020.9hPa SW 7.0mph /  11.3km/h 9.0mph /  14.5km/h 63% 0.00in /  0mm
13:17 76.8 °F /  24.9 °C 63.7 °F /  17.6 °C 30.15in /  1020.9hPa WSW 7.0mph /  11.3km/h 8.0mph /  12.9km/h 64% 0.00in /  0mm
13:22 77.3 °F /  25.2 °C 64.6 °F /  18.1 °C 30.15in /  1020.9hPa SSE 7.0mph /  11.3km/h 9.0mph /  14.5km/h 65% 0.00in /  0mm
13:27 77.8 °F /  25.4 °C 65.1 °F /  18.4 °C 30.15in /  1020.9hPa SSE 10.0mph /  16.1km/h 10.0mph /  16.1km/h 65% 0.00in /  0mm
13:32 77.6 °F /  25.3 °C 64.0 °F /  17.8 °C 30.14in /  1020.5hPa SW 7.0mph /  11.3km/h 8.0mph /  12.9km/h 63% 0.00in /  0mm
13:37 78.0 °F /  25.6 °C 64.4 °F /  18 °C 30.14in /  1020.5hPa SSE 6.0mph /  9.7km/h 13.0mph /  20.9km/h 63% 0.00in /  0mm
13:42 78.1 °F /  25.6 °C 63.6 °F /  17.6 °C 30.14in /  1020.5hPa SSW 8.0mph /  12.9km/h 12.0mph /  19.3km/h 61% 0.00in /  0mm
13:47 78.5 °F /  25.8 °C 64.9 °F /  18.3 °C 30.14in /  1020.5hPa South 9.0mph /  14.5km/h 14.0mph /  22.5km/h 63% 0.00in /  0mm
13:52 78.2 °F /  25.7 °C 64.1 °F /  17.8 °C 30.13in /  1020.2hPa SSE 6.0mph /  9.7km/h 10.0mph /  16.1km/h 62% 0.00in /  0mm
13:57 77.6 °F /  25.3 °C 64.0 °F /  17.8 °C 30.13in /  1020.2hPa SSE 5.0mph /  8km/h 9.0mph /  14.5km/h 63% 0.00in /  0mm
14:02 77.3 °F /  25.2 °C 63.3 °F /  17.4 °C 30.12in /  1019.9hPa WSW 4.0mph /  6.4km/h 8.0mph /  12.9km/h 62% 0.00in /  0mm
14:07 77.5 °F /  25.3 °C 63.5 °F /  17.5 °C 30.12in /  1019.9hPa SSW 5.0mph /  8km/h 10.0mph /  16.1km/h 62% 0.00in /  0mm
14:12 77.5 °F /  25.3 °C 63.9 °F /  17.7 °C 30.12in /  1019.9hPa SW 9.0mph /  14.5km/h 9.0mph /  14.5km/h 63% 0.00in /  0mm
14:18 78.0 °F /  25.6 °C 64.4 °F /  18 °C 30.11in /  1019.5hPa SSW 5.0mph /  8km/h 8.0mph /  12.9km/h 63% 0.00in /  0mm
14:23 78.7 °F /  25.9 °C 63.7 °F /  17.6 °C 30.11in /  1019.5hPa South 6.0mph /  9.7km/h 9.0mph /  14.5km/h 60% 0.00in /  0mm
14:28 78.3 °F /  25.7 °C 62.3 °F /  16.8 °C 30.11in /  1019.5hPa SSW 9.0mph /  14.5km/h 11.0mph /  17.7km/h 58% 0.00in /  0mm
14:33 78.7 °F /  25.9 °C 63.2 °F /  17.3 °C 30.11in /  1019.5hPa South 9.0mph /  14.5km/h 15.0mph /  24.1km/h 59% 0.00in /  0mm
14:38 78.7 °F /  25.9 °C 63.7 °F /  17.6 °C 30.11in /  1019.5hPa South 9.0mph /  14.5km/h 12.0mph /  19.3km/h 60% 0.00in /  0mm
14:43 78.6 °F /  25.9 °C 63.1 °F /  17.3 °C 30.10in /  1019.2hPa SSE 5.0mph /  8km/h 7.0mph /  11.3km/h 59% 0.00in /  0mm
14:48 79.0 °F /  26.1 °C 63.0 °F /  17.2 °C 30.10in /  1019.2hPa SW 4.0mph /  6.4km/h 9.0mph /  14.5km/h 58% 0.00in /  0mm
14:53 79.3 °F /  26.3 °C 63.3 °F /  17.4 °C 30.09in /  1018.8hPa SW 6.0mph /  9.7km/h 11.0mph /  17.7km/h 58% 0.00in /  0mm
14:58 79.0 °F /  26.1 °C 63.5 °F /  17.5 °C 30.09in /  1018.8hPa SSW 6.0mph /  9.7km/h 7.0mph /  11.3km/h 59% 0.00in /  0mm
15:03 79.5 °F /  26.4 °C 63.9 °F /  17.7 °C 30.09in /  1018.8hPa SSE 7.0mph /  11.3km/h 10.0mph /  16.1km/h 59% 0.00in /  0mm
15:08 79.8 °F /  26.6 °C 63.2 °F /  17.3 °C 30.08in /  1018.5hPa SW 2.0mph /  3.2km/h 10.0mph /  16.1km/h 57% 0.00in /  0mm
15:13 79.6 °F /  26.4 °C 63.0 °F /  17.2 °C 30.08in /  1018.5hPa South 5.0mph /  8km/h 15.0mph /  24.1km/h 57% 0.00in /  0mm
15:18 79.2 °F /  26.2 °C 61.7 °F /  16.5 °C 30.09in /  1018.8hPa South 8.0mph /  12.9km/h 11.0mph /  17.7km/h 55% 0.00in /  0mm
15:23 78.8 °F /  26 °C 61.8 °F /  16.6 °C 30.08in /  1018.5hPa SSW 7.0mph /  11.3km/h 11.0mph /  17.7km/h 56% 0.00in /  0mm
15:28 78.9 °F /  26.1 °C 62.4 °F /  16.9 °C 30.08in /  1018.5hPa SSE 8.0mph /  12.9km/h 15.0mph /  24.1km/h 57% 0.00in /  0mm
15:33 79.3 °F /  26.3 °C 61.2 °F /  16.2 °C 30.08in /  1018.5hPa South 5.0mph /  8km/h 11.0mph /  17.7km/h 54% 0.00in /  0mm
15:38 79.4 °F /  26.3 °C 62.3 °F /  16.8 °C 30.08in /  1018.5hPa SE 9.0mph /  14.5km/h 12.0mph /  19.3km/h 56% 0.00in /  0mm
15:43 79.3 °F /  26.3 °C 61.8 °F /  16.6 °C 30.07in /  1018.2hPa South 9.0mph /  14.5km/h 12.0mph /  19.3km/h 55% 0.00in /  0mm
15:48 79.2 °F /  26.2 °C 61.7 °F /  16.5 °C 30.07in /  1018.2hPa SSW 7.0mph /  11.3km/h 12.0mph /  19.3km/h 55% 0.00in /  0mm
15:53 78.9 °F /  26.1 °C 61.4 °F /  16.3 °C 30.07in /  1018.2hPa SSE 3.0mph /  4.8km/h 10.0mph /  16.1km/h 55% 0.00in /  0mm
15:58 79.0 °F /  26.1 °C 61.0 °F /  16.1 °C 30.07in /  1018.2hPa South 8.0mph /  12.9km/h 10.0mph /  16.1km/h 54% 0.00in /  0mm
16:03 79.0 °F /  26.1 °C 61.0 °F /  16.1 °C 30.07in /  1018.2hPa SE 6.0mph /  9.7km/h 7.0mph /  11.3km/h 54% 0.00in /  0mm
16:08 78.6 °F /  25.9 °C 60.6 °F /  15.9 °C 30.07in /  1018.2hPa South 6.0mph /  9.7km/h 9.0mph /  14.5km/h 54% 0.00in /  0mm
16:13 78.1 °F /  25.6 °C 59.6 °F /  15.3 °C 30.07in /  1018.2hPa SW 5.0mph /  8km/h 12.0mph /  19.3km/h 53% 0.00in /  0mm
16:18 78.0 °F /  25.6 °C 60.5 °F /  15.8 °C 30.06in /  1017.8hPa SE 3.0mph /  4.8km/h 9.0mph /  14.5km/h 55% 0.00in /  0mm
16:23 78.0 °F /  25.6 °C 61.0 °F /  16.1 °C 30.06in /  1017.8hPa South 3.0mph /  4.8km/h 8.0mph /  12.9km/h 56% 0.00in /  0mm
16:28 78.1 °F /  25.6 °C 62.1 °F /  16.7 °C 30.06in /  1017.8hPa South 6.0mph /  9.7km/h 8.0mph /  12.9km/h 58% 0.00in /  0mm
16:34 78.1 °F /  25.6 °C 61.6 °F /  16.4 °C 30.06in /  1017.8hPa SE 6.0mph /  9.7km/h 9.0mph /  14.5km/h 57% 0.00in /  0mm
16:39 78.1 °F /  25.6 °C 61.6 °F /  16.4 °C 30.06in /  1017.8hPa SSE 4.0mph /  6.4km/h 6.0mph /  9.7km/h 57% 0.00in /  0mm
16:44 78.1 °F /  25.6 °C 62.1 °F /  16.7 °C 30.06in /  1017.8hPa South 5.0mph /  8km/h 7.0mph /  11.3km/h 58% 0.00in /  0mm
16:49 78.2 °F /  25.7 °C 62.2 °F /  16.8 °C 30.06in /  1017.8hPa South 4.0mph /  6.4km/h 6.0mph /  9.7km/h 58% 0.00in /  0mm
16:54 78.2 °F /  25.7 °C 62.2 °F /  16.8 °C 30.06in /  1017.8hPa SSW 3.0mph /  4.8km/h 8.0mph /  12.9km/h 58% 0.00in /  0mm
16:59 78.4 °F /  25.8 °C 62.4 °F /  16.9 °C 30.06in /  1017.8hPa SSW 5.0mph /  8km/h 7.0mph /  11.3km/h 58% 0.00in /  0mm
17:04 78.6 °F /  25.9 °C 63.1 °F /  17.3 °C 30.06in /  1017.8hPa SSW 3.0mph /  4.8km/h 7.0mph /  11.3km/h 59% 0.00in /  0mm
17:09 78.4 °F /  25.8 °C 61.9 °F /  16.6 °C 30.06in /  1017.8hPa SSE 5.0mph /  8km/h 7.0mph /  11.3km/h 57% 0.00in /  0mm
17:14 78.1 °F /  25.6 °C 62.6 °F /  17 °C 30.06in /  1017.8hPa SSE 4.0mph /  6.4km/h 6.0mph /  9.7km/h 59% 0.00in /  0mm
17:19 77.9 °F /  25.5 °C 62.0 °F /  16.7 °C 30.06in /  1017.8hPa South 4.0mph /  6.4km/h 4.0mph /  6.4km/h 58% 0.00in /  0mm
17:24 77.9 °F /  25.5 °C 62.0 °F /  16.7 °C 30.06in /  1017.8hPa SSW 3.0mph /  4.8km/h 6.0mph /  9.7km/h 58% 0.00in /  0mm
17:29 77.8 °F /  25.4 °C 61.4 °F /  16.3 °C 30.05in /  1017.5hPa SSE 2.0mph /  3.2km/h 4.0mph /  6.4km/h 57% 0.00in /  0mm
17:34 77.7 °F /  25.4 °C 61.3 °F /  16.3 °C 30.06in /  1017.8hPa SSE 6.0mph /  9.7km/h 6.0mph /  9.7km/h 57% 0.00in /  0mm
17:39 77.7 °F /  25.4 °C 61.3 °F /  16.3 °C 30.05in /  1017.5hPa South 2.0mph /  3.2km/h 4.0mph /  6.4km/h 57% 0.00in /  0mm
17:44 77.6 °F /  25.3 °C 61.2 °F /  16.2 °C 30.05in /  1017.5hPa SSW 2.0mph /  3.2km/h 5.0mph /  8km/h 57% 0.00in /  0mm
17:49 77.3 °F /  25.2 °C 61.4 °F /  16.3 °C 30.05in /  1017.5hPa SSW 3.0mph /  4.8km/h 4.0mph /  6.4km/h 58% 0.00in /  0mm
17:54 77.2 °F /  25.1 °C 60.8 °F /  16 °C 30.05in /  1017.5hPa WSW 2.0mph /  3.2km/h 4.0mph /  6.4km/h 57% 0.00in /  0mm
17:59 77.2 °F /  25.1 °C 61.8 °F /  16.6 °C 30.05in /  1017.5hPa WSW 1.0mph /  1.6km/h 3.0mph /  4.8km/h 59% 0.00in /  0mm
18:04 77.2 °F /  25.1 °C 60.3 °F /  15.7 °C 30.05in /  1017.5hPa WSW 3.0mph /  4.8km/h 4.0mph /  6.4km/h 56% 0.00in /  0mm
18:09 77.3 °F /  25.2 °C 59.9 °F /  15.5 °C 30.05in /  1017.5hPa WSW 3.0mph /  4.8km/h 5.0mph /  8km/h 55% 0.00in /  0mm
18:14 77.2 °F /  25.1 °C 59.8 °F /  15.4 °C 30.05in /  1017.5hPa WSW 2.0mph /  3.2km/h 5.0mph /  8km/h 55% 0.00in /  0mm
18:19 77.0 °F /  25 °C 60.1 °F /  15.6 °C 30.05in /  1017.5hPa SW 2.0mph /  3.2km/h 3.0mph /  4.8km/h 56% 0.00in /  0mm
18:24 76.8 °F /  24.9 °C 60.4 °F /  15.8 °C 30.05in /  1017.5hPa WSW 4.0mph /  6.4km/h 4.0mph /  6.4km/h 57% 0.00in /  0mm
18:29 76.7 °F /  24.8 °C 59.8 °F /  15.4 °C 30.05in /  1017.5hPa SW 2.0mph /  3.2km/h 3.0mph /  4.8km/h 56% 0.00in /  0mm
18:34 76.5 °F /  24.7 °C 59.7 °F /  15.4 °C 30.05in /  1017.5hPa WSW 3.0mph /  4.8km/h 4.0mph /  6.4km/h 56% 0.00in /  0mm
18:39 76.5 °F /  24.7 °C 59.2 °F /  15.1 °C 30.05in /  1017.5hPa WSW 1.0mph /  1.6km/h 4.0mph /  6.4km/h 55% 0.00in /  0mm
18:44 76.3 °F /  24.6 °C 59.0 °F /  15 °C 30.06in /  1017.8hPa SW 2.0mph /  3.2km/h 3.0mph /  4.8km/h 55% 0.00in /  0mm
18:49 76.2 °F /  24.6 °C 58.9 °F /  14.9 °C 30.06in /  1017.8hPa WSW 2.0mph /  3.2km/h 3.0mph /  4.8km/h 55% 0.00in /  0mm
18:54 76.0 °F /  24.4 °C 58.7 °F /  14.8 °C 30.06in /  1017.8hPa WSW 1.0mph /  1.6km/h 2.0mph /  3.2km/h 55% 0.00in /  0mm
18:59 75.8 °F /  24.3 °C 58.5 °F /  14.7 °C 30.06in /  1017.8hPa SW 1.0mph /  1.6km/h 1.0mph /  1.6km/h 55% 0.00in /  0mm
19:04 75.7 °F /  24.3 °C 58.9 °F /  14.9 °C 30.06in /  1017.8hPa Calm   1.0mph /  1.6km/h 56% 0.00in /  0mm
19:09 75.4 °F /  24.1 °C 58.1 °F /  14.5 °C 30.06in /  1017.8hPa WSW 1.0mph /  1.6km/h 1.0mph /  1.6km/h 55% 0.00in /  0mm
19:14 75.4 °F /  24.1 °C 58.1 °F /  14.5 °C 30.06in /  1017.8hPa Calm   1.0mph /  1.6km/h 55% 0.00in /  0mm
19:19 75.1 °F /  23.9 °C 58.3 °F /  14.6 °C 30.06in /  1017.8hPa Calm     56% 0.00in /  0mm
19:24 74.8 °F /  23.8 °C 58.1 °F /  14.5 °C 30.06in /  1017.8hPa Calm     56% 0.00in /  0mm
19:29 74.5 °F /  23.6 °C 58.3 °F /  14.6 °C 30.06in /  1017.8hPa WSW 1.0mph /  1.6km/h 1.0mph /  1.6km/h 57% 0.00in /  0mm
19:34 74.4 °F /  23.6 °C 58.7 °F /  14.8 °C 30.06in /  1017.8hPa SE 1.0mph /  1.6km/h 1.0mph /  1.6km/h 58% 0.00in /  0mm
19:39 74.2 °F /  23.4 °C 59.4 °F /  15.2 °C 30.06in /  1017.8hPa SE 1.0mph /  1.6km/h 2.0mph /  3.2km/h 60% 0.00in /  0mm
19:44 73.7 °F /  23.2 °C 59.9 °F /  15.5 °C 30.07in /  1018.2hPa Calm   1.0mph /  1.6km/h 62% 0.00in /  0mm
19:49 73.1 °F /  22.8 °C 59.8 °F /  15.4 °C 30.07in /  1018.2hPa SE 2.0mph /  3.2km/h 2.0mph /  3.2km/h 63% 0.00in /  0mm
19:54 72.7 °F /  22.6 °C 59.4 °F /  15.2 °C 30.07in /  1018.2hPa SE 1.0mph /  1.6km/h 2.0mph /  3.2km/h 63% 0.00in /  0mm
20:00 72.5 °F /  22.5 °C 59.2 °F /  15.1 °C 30.07in /  1018.2hPa SSE 1.0mph /  1.6km/h 1.0mph /  1.6km/h 63% 0.00in /  0mm
20:04 72.1 °F /  22.3 °C 60.1 °F /  15.6 °C 30.07in /  1018.2hPa SE 1.0mph /  1.6km/h 1.0mph /  1.6km/h 66% 0.00in /  0mm
20:09 71.8 °F /  22.1 °C 59.4 °F /  15.2 °C 30.07in /  1018.2hPa SE 2.0mph /  3.2km/h 2.0mph /  3.2km/h 65% 0.00in /  0mm
20:15 72.1 °F /  22.3 °C 58.8 °F /  14.9 °C 30.07in /  1018.2hPa SE 1.0mph /  1.6km/h 3.0mph /  4.8km/h 63% 0.00in /  0mm
20:20 71.9 °F /  22.2 °C 59.1 °F /  15.1 °C 30.07in /  1018.2hPa Calm   1.0mph /  1.6km/h 64% 0.00in /  0mm
20:25 71.6 °F /  22 °C 59.2 °F /  15.1 °C 30.07in /  1018.2hPa Calm   1.0mph /  1.6km/h 65% 0.00in /  0mm
20:30 71.4 °F /  21.9 °C 59.0 °F /  15 °C 30.07in /  1018.2hPa Calm     65% 0.00in /  0mm
20:35 71.2 °F /  21.8 °C 59.3 °F /  15.2 °C 30.07in /  1018.2hPa Calm     66% 0.00in /  0mm
20:40 71.1 °F /  21.7 °C 58.8 °F /  14.9 °C 30.07in /  1018.2hPa WSW 1.0mph /  1.6km/h 1.0mph /  1.6km/h 65% 0.00in /  0mm
20:45 71.4 °F /  21.9 °C 58.6 °F /  14.8 °C 30.07in /  1018.2hPa Calm   1.0mph /  1.6km/h 64% 0.00in /  0mm
20:50 71.4 °F /  21.9 °C 59.5 °F /  15.3 °C 30.07in /  1018.2hPa Calm     66% 0.00in /  0mm
20:55 71.2 °F /  21.8 °C 59.3 °F /  15.2 °C 30.07in /  1018.2hPa WSW 1.0mph /  1.6km/h 1.0mph /  1.6km/h 66% 0.00in /  0mm
21:00 71.3 °F /  21.8 °C 58.5 °F /  14.7 °C 30.07in /  1018.2hPa WSW 1.0mph /  1.6km/h 2.0mph /  3.2km/h 64% 0.00in /  0mm
21:05 71.5 °F /  21.9 °C 58.7 °F /  14.8 °C 30.07in /  1018.2hPa Calm   1.0mph /  1.6km/h 64% 0.00in /  0mm
21:10 71.6 °F /  22 °C 58.3 °F /  14.6 °C 30.07in /  1018.2hPa WSW 1.0mph /  1.6km/h 1.0mph /  1.6km/h 63% 0.00in /  0mm
21:15 71.8 °F /  22.1 °C 58.5 °F /  14.7 °C 30.07in /  1018.2hPa WSW 1.0mph /  1.6km/h 1.0mph /  1.6km/h 63% 0.00in /  0mm
21:20 71.9 °F /  22.2 °C 58.6 °F /  14.8 °C 30.08in /  1018.5hPa SW 1.0mph /  1.6km/h 1.0mph /  1.6km/h 63% 0.00in /  0mm
21:25 71.7 °F /  22.1 °C 58.9 °F /  14.9 °C 30.08in /  1018.5hPa Calm   1.0mph /  1.6km/h 64% 0.00in /  0mm
21:30 71.6 °F /  22 °C 58.8 °F /  14.9 °C 30.08in /  1018.5hPa SW 1.0mph /  1.6km/h 2.0mph /  3.2km/h 64% 0.00in /  0mm
21:35 71.6 °F /  22 °C 58.8 °F /  14.9 °C 30.08in /  1018.5hPa Calm   1.0mph /  1.6km/h 64% 0.00in /  0mm
21:41 71.4 °F /  21.9 °C 58.6 °F /  14.8 °C 30.08in /  1018.5hPa Calm     64% 0.00in /  0mm
21:46 71.2 °F /  21.8 °C 58.4 °F /  14.7 °C 30.08in /  1018.5hPa Calm     64% 0.00in /  0mm
21:51 70.8 °F /  21.6 °C 58.5 °F /  14.7 °C 30.08in /  1018.5hPa Calm     65% 0.00in /  0mm
21:56 71.0 °F /  21.7 °C 58.7 °F /  14.8 °C 30.08in /  1018.5hPa ENE 2.0mph /  3.2km/h 2.0mph /  3.2km/h 65% 0.00in /  0mm
22:01 71.1 °F /  21.7 °C 58.8 °F /  14.9 °C 30.08in /  1018.5hPa ENE 2.0mph /  3.2km/h 2.0mph /  3.2km/h 65% 0.00in /  0mm
22:06 70.9 °F /  21.6 °C 58.6 °F /  14.8 °C 30.08in /  1018.5hPa ENE 1.0mph /  1.6km/h 2.0mph /  3.2km/h 65% 0.00in /  0mm
22:11 70.7 °F /  21.5 °C 58.8 °F /  14.9 °C 30.09in /  1018.8hPa Calm   1.0mph /  1.6km/h 66% 0.00in /  0mm
22:16 70.5 °F /  21.4 °C 59.0 °F /  15 °C 30.09in /  1018.8hPa Calm     67% 0.00in /  0mm
22:21 70.2 °F /  21.2 °C 58.3 °F /  14.6 °C 30.09in /  1018.8hPa Calm     66% 0.00in /  0mm
22:26 70.0 °F /  21.1 °C 58.5 °F /  14.7 °C 30.09in /  1018.8hPa Calm     67% 0.00in /  0mm
22:31 70.2 °F /  21.2 °C 58.3 °F /  14.6 °C 30.09in /  1018.8hPa ENE 1.0mph /  1.6km/h 2.0mph /  3.2km/h 66% 0.00in /  0mm
22:36 70.7 °F /  21.5 °C 58.4 °F /  14.7 °C 30.09in /  1018.8hPa ENE 1.0mph /  1.6km/h 2.0mph /  3.2km/h 65% 0.00in /  0mm
22:41 70.9 °F /  21.6 °C 58.6 °F /  14.8 °C 30.09in /  1018.8hPa ENE 1.0mph /  1.6km/h 1.0mph /  1.6km/h 65% 0.00in /  0mm
22:46 70.9 °F /  21.6 °C 58.6 °F /  14.8 °C 30.09in /  1018.8hPa East 1.0mph /  1.6km/h 2.0mph /  3.2km/h 65% 0.00in /  0mm
22:51 70.8 °F /  21.6 °C 59.3 °F /  15.2 °C 30.09in /  1018.8hPa East 1.0mph /  1.6km/h 1.0mph /  1.6km/h 67% 0.00in /  0mm
22:56 69.9 °F /  21.1 °C 58.9 °F /  14.9 °C 30.10in /  1019.2hPa East 1.0mph /  1.6km/h 2.0mph /  3.2km/h 68% 0.00in /  0mm
23:01 69.9 °F /  21.1 °C 58.9 °F /  14.9 °C 30.10in /  1019.2hPa East 1.0mph /  1.6km/h 1.0mph /  1.6km/h 68% 0.00in /  0mm
23:06 69.3 °F /  20.7 °C 59.5 °F /  15.3 °C 30.10in /  1019.2hPa East 1.0mph /  1.6km/h 1.0mph /  1.6km/h 71% 0.00in /  0mm
23:11 68.6 °F /  20.3 °C 58.8 °F /  14.9 °C 30.10in /  1019.2hPa East 1.0mph /  1.6km/h 2.0mph /  3.2km/h 71% 0.00in /  0mm
23:16 68.4 °F /  20.2 °C 58.6 °F /  14.8 °C 30.10in /  1019.2hPa East 2.0mph /  3.2km/h 2.0mph /  3.2km/h 71% 0.00in /  0mm
23:21 68.6 °F /  20.3 °C 58.8 °F /  14.9 °C 30.10in /  1019.2hPa East 2.0mph /  3.2km/h 2.0mph /  3.2km/h 71% 0.00in /  0mm
23:27 68.2 °F /  20.1 °C 58.8 °F /  14.9 °C 30.10in /  1019.2hPa East 1.0mph /  1.6km/h 1.0mph /  1.6km/h 72% 0.00in /  0mm
23:32 67.6 °F /  19.8 °C 59.0 °F /  15 °C 30.10in /  1019.2hPa East 1.0mph /  1.6km/h 1.0mph /  1.6km/h 74% 0.00in /  0mm
23:37 67.2 °F /  19.6 °C 58.6 °F /  14.8 °C 30.10in /  1019.2hPa ESE 3.0mph /  4.8km/h 3.0mph /  4.8km/h 74% 0.00in /  0mm
23:42 67.8 °F /  19.9 °C 58.8 °F /  14.9 °C 30.10in /  1019.2hPa ESE 3.0mph /  4.8km/h 4.0mph /  6.4km/h 73% 0.00in /  0mm
23:47 67.6 °F /  19.8 °C 58.7 °F /  14.8 °C 30.10in /  1019.2hPa ESE 2.0mph /  3.2km/h 3.0mph /  4.8km/h 73% 0.00in /  0mm
23:52 67.5 °F /  19.7 °C 58.5 °F /  14.7 °C 30.10in /  1019.2hPa ESE 2.0mph /  3.2km/h 2.0mph /  3.2km/h 73% 0.00in /  0mm
23:57 67.5 °F /  19.7 °C 58.9 °F /  14.9 °C 30.10in /  1019.2hPa ESE 1.0mph /  1.6km/h 2.0mph /  3.2km/h 74% 0.00in /  0mm
Compliments of Weather Underground